Hideaway Hills, Ohio
Current Conditions -  °F | °C
As of 4:53 AM on Saturday 25 Oct 2014 (Local Time) from KLHQ Reporting Station
Clear Clear  
Wind Chill: 40°   Ceiling: Unl
Heat Index: 43°   Visibility: 10mi
Dew Point: 38°   Wind: 5mph
Humidity: 82%   Direction: 120°ESE
Pressure: 29.99"   Gusts: NA
Location:  39.689°N, 82.4035°W
Report Text: KLHQ 250853Z AUTO 12004KT 10SM CLR 06/03 A2999 RMK AO2 SLP156 T00610033 58008
Loading
Personal Weather Stations






























Interactive Weather Map
Tropical Storm Tracking
New forecast layout! Learn more

10-Day Weather Forecast

Advertisements
Track Severe Weather on mobile